Strona główna
METAR-TAF:

METAR-TAF

Lotnisko :

Port lotniczy Baia Mare

Baia Mare, Rumunia

Szerokość geograficzna: 47-40N, Długość geograficzna: 023-35E, wysokość: 218 m

Aktualna obserwacja pogody

Raport powstał 18 minut temu, godzina 05:30 UTC
Wiatr 2 kt od południowo-południowy wschód
Temperatura 7°C
Wilgotność 53%
Ciśnienie 1023 hPa
Widzialność 10 km lub więcej
Brak chmur poniżej 1500 m i brak chmur cumulonimbus

METAR: LRBM 090530Z 15002KT CAVOK 07/M02 Q1023

czas: 08:48 (05:48 UTC)

Prognoza

Raport powstał 48 minut temu, godzina 05:00 UTC
Prognoza ważna od 09 godzina 06 UTC do 09 godzina 15 UTC
Wiatr 4 kt z kierunków zmiennych
Widzialność 10 km lub więcej
Brak chmur poniżej 1500 m i brak chmur cumulonimbus

TAF: LRBM 090500Z 0906/0915 VRB04KT CAVOK

Obserwacja i prognoza pogody dla ponad 4000 lotnisk (raport METAR i TAF).

Dostępne stacje oznaczono żółtymi i czerwonymi punktami na mapie.

Najedź kursorem aby zobaczyć nazwę stacji.

Kliknij aby zobaczyć obserwacje i prognozy pogody.

Aby zmienić mapę: kliknij na zielony przycisk z czarnym krzyżykiem, aby powiększyć; na zielony przycisk z myślnikiem, aby pomniejszyć; na zielone strzałki, aby przejść do map sąsiednich.


METAR-TAF: